sensor_id;sensor_type;location;lat;lon;timestamp;temperature;humidity
3770;DHT22;1900;48.890;9.190;2023-04-09T00:02:12;13.70;49.00
3770;DHT22;1900;48.890;9.190;2023-04-09T00:04:38;13.70;49.00
3770;DHT22;1900;48.890;9.190;2023-04-09T00:07:03;13.70;49.00
3770;DHT22;1900;48.890;9.190;2023-04-09T00:09:29;13.70;49.00
3770;DHT22;1900;48.890;9.190;2023-04-09T00:11:55;13.70;49.00
3770;DHT22;1900;48.890;9.190;2023-04-09T00:14:21;13.70;49.00
3770;DHT22;1900;48.890;9.190;2023-04-09T00:16:47;13.70;49.00
3770;DHT22;1900;48.890;9.190;2023-04-09T00:19:12;13.70;49.00
3770;DHT22;1900;48.890;9.190;2023-04-09T00:21:38;13.70;49.10
3770;DHT22;1900;48.890;9.190;2023-04-09T00:24:04;13.60;49.00
3770;DHT22;1900;48.890;9.190;2023-04-09T00:26:30;13.60;49.00
3770;DHT22;1900;48.890;9.190;2023-04-09T00:28:56;13.60;49.10
3770;DHT22;1900;48.890;9.190;2023-04-09T00:31:21;13.60;49.10
3770;DHT22;1900;48.890;9.190;2023-04-09T00:33:47;13.60;49.10
3770;DHT22;1900;48.890;9.190;2023-04-09T00:36:13;13.60;49.10
3770;DHT22;1900;48.890;9.190;2023-04-09T00:38:38;13.60;49.10
3770;DHT22;1900;48.890;9.190;2023-04-09T00:41:04;13.60;49.10
3770;DHT22;1900;48.890;9.190;2023-04-09T00:43:30;13.60;49.20
3770;DHT22;1900;48.890;9.190;2023-04-09T00:45:56;13.60;49.20
3770;DHT22;1900;48.890;9.190;2023-04-09T00:48:22;13.50;49.20
3770;DHT22;1900;48.890;9.190;2023-04-09T00:50:48;13.60;49.30
3770;DHT22;1900;48.890;9.190;2023-04-09T00:53:15;13.50;49.20
3770;DHT22;1900;48.890;9.190;2023-04-09T00:55:41;13.50;49.30
3770;DHT22;1900;48.890;9.190;2023-04-09T00:58:07;13.60;49.30
3770;DHT22;1900;48.890;9.190;2023-04-09T01:00:32;13.60;49.30
3770;DHT22;1900;48.890;9.190;2023-04-09T01:02:59;13.60;49.30
3770;DHT22;1900;48.890;9.190;2023-04-09T01:05:49;13.60;49.40
3770;DHT22;1900;48.890;9.190;2023-04-09T01:08:53;13.60;49.40
3770;DHT22;1900;48.890;9.190;2023-04-09T01:11:39;13.60;49.40
3770;DHT22;1900;48.890;9.190;2023-04-09T01:16:45;13.60;49.40
3770;DHT22;1900;48.890;9.190;2023-04-09T01:22:09;13.60;49.50
3770;DHT22;1900;48.890;9.190;2023-04-09T01:24:56;13.50;49.40
3770;DHT22;1900;48.890;9.190;2023-04-09T01:27:40;13.60;49.40
3770;DHT22;1900;48.890;9.190;2023-04-09T01:30:08;13.50;49.30
3770;DHT22;1900;48.890;9.190;2023-04-09T01:32:36;13.50;49.30
3770;DHT22;1900;48.890;9.190;2023-04-09T01:35:03;13.50;49.20
3770;DHT22;1900;48.890;9.190;2023-04-09T01:37:31;13.50;49.20
3770;DHT22;1900;48.890;9.190;2023-04-09T01:39:58;13.50;49.20
3770;DHT22;1900;48.890;9.190;2023-04-09T01:42:24;13.50;49.30
3770;DHT22;1900;48.890;9.190;2023-04-09T01:44:51;13.50;49.40
3770;DHT22;1900;48.890;9.190;2023-04-09T01:47:18;13.50;49.40
3770;DHT22;1900;48.890;9.190;2023-04-09T01:49:44;13.50;49.50
3770;DHT22;1900;48.890;9.190;2023-04-09T01:52:10;13.50;49.50
3770;DHT22;1900;48.890;9.190;2023-04-09T01:54:36;13.50;49.50
3770;DHT22;1900;48.890;9.190;2023-04-09T01:57:02;13.50;49.50
3770;DHT22;1900;48.890;9.190;2023-04-09T01:59:28;13.50;49.50
3770;DHT22;1900;48.890;9.190;2023-04-09T02:02:00;13.50;49.50
3770;DHT22;1900;48.890;9.190;2023-04-09T02:04:38;13.50;49.60
3770;DHT22;1900;48.890;9.190;2023-04-09T02:09:45;13.50;49.60
3770;DHT22;1900;48.890;9.190;2023-04-09T02:12:15;13.50;49.50
3770;DHT22;1900;48.890;9.190;2023-04-09T02:14:44;13.50;49.50
3770;DHT22;1900;48.890;9.190;2023-04-09T02:17:11;13.50;49.50
3770;DHT22;1900;48.890;9.190;2023-04-09T02:19:46;13.50;49.30
3770;DHT22;1900;48.890;9.190;2023-04-09T02:22:14;13.50;49.30
3770;DHT22;1900;48.890;9.190;2023-04-09T02:24:40;13.40;49.20
3770;DHT22;1900;48.890;9.190;2023-04-09T02:27:06;13.40;49.30
3770;DHT22;1900;48.890;9.190;2023-04-09T02:29:32;13.40;49.30
3770;DHT22;1900;48.890;9.190;2023-04-09T02:31:58;13.40;49.40
3770;DHT22;1900;48.890;9.190;2023-04-09T02:34:24;13.40;49.40
3770;DHT22;1900;48.890;9.190;2023-04-09T02:36:50;13.40;49.40
3770;DHT22;1900;48.890;9.190;2023-04-09T02:39:16;13.40;49.30
3770;DHT22;1900;48.890;9.190;2023-04-09T02:41:41;13.30;49.20
3770;DHT22;1900;48.890;9.190;2023-04-09T02:44:07;13.30;49.20
3770;DHT22;1900;48.890;9.190;2023-04-09T02:46:33;13.30;49.20
3770;DHT22;1900;48.890;9.190;2023-04-09T02:48:58;13.30;49.20
3770;DHT22;1900;48.890;9.190;2023-04-09T02:51:24;13.30;49.30
3770;DHT22;1900;48.890;9.190;2023-04-09T02:53:52;13.30;49.30
3770;DHT22;1900;48.890;9.190;2023-04-09T02:56:17;13.30;49.40
3770;DHT22;1900;48.890;9.190;2023-04-09T02:58:43;13.30;49.40
3770;DHT22;1900;48.890;9.190;2023-04-09T03:01:08;13.30;49.40
3770;DHT22;1900;48.890;9.190;2023-04-09T03:03:34;13.30;49.50
3770;DHT22;1900;48.890;9.190;2023-04-09T03:06:01;13.30;49.50
3770;DHT22;1900;48.890;9.190;2023-04-09T03:08:30;13.20;49.40
3770;DHT22;1900;48.890;9.190;2023-04-09T03:10:56;13.30;49.50
3770;DHT22;1900;48.890;9.190;2023-04-09T03:13:21;13.30;49.50
3770;DHT22;1900;48.890;9.190;2023-04-09T03:15:51;13.30;49.60
3770;DHT22;1900;48.890;9.190;2023-04-09T03:18:17;13.30;49.50
3770;DHT22;1900;48.890;9.190;2023-04-09T03:20:43;13.20;49.50
3770;DHT22;1900;48.890;9.190;2023-04-09T03:23:10;13.20;49.50
3770;DHT22;1900;48.890;9.190;2023-04-09T03:25:40;13.20;49.50
3770;DHT22;1900;48.890;9.190;2023-04-09T03:28:11;13.20;49.50
3770;DHT22;1900;48.890;9.190;2023-04-09T03:30:44;13.20;49.50
3770;DHT22;1900;48.890;9.190;2023-04-09T03:33:10;13.20;49.50
3770;DHT22;1900;48.890;9.190;2023-04-09T03:35:46;13.20;49.60
3770;DHT22;1900;48.890;9.190;2023-04-09T03:38:12;13.20;49.60
3770;DHT22;1900;48.890;9.190;2023-04-09T03:40:37;13.20;49.60
3770;DHT22;1900;48.890;9.190;2023-04-09T03:43:03;13.20;49.60
3770;DHT22;1900;48.890;9.190;2023-04-09T03:45:32;13.20;49.60
3770;DHT22;1900;48.890;9.190;2023-04-09T03:48:11;13.20;49.50
3770;DHT22;1900;48.890;9.190;2023-04-09T03:50:41;13.20;49.20
3770;DHT22;1900;48.890;9.190;2023-04-09T03:53:10;13.10;49.10
3770;DHT22;1900;48.890;9.190;2023-04-09T03:55:36;13.10;49.20
3770;DHT22;1900;48.890;9.190;2023-04-09T03:58:05;13.10;49.20
3770;DHT22;1900;48.890;9.190;2023-04-09T04:00:33;13.10;49.30
3770;DHT22;1900;48.890;9.190;2023-04-09T04:03:19;13.10;49.30
3770;DHT22;1900;48.890;9.190;2023-04-09T04:06:04;13.00;49.20
3770;DHT22;1900;48.890;9.190;2023-04-09T04:08:41;13.00;49.10
3770;DHT22;1900;48.890;9.190;2023-04-09T04:11:09;12.90;49.10
3770;DHT22;1900;48.890;9.190;2023-04-09T04:13:35;12.90;49.10
3770;DHT22;1900;48.890;9.190;2023-04-09T04:16:08;12.90;49.20
3770;DHT22;1900;48.890;9.190;2023-04-09T04:18:36;12.90;49.30
3770;DHT22;1900;48.890;9.190;2023-04-09T04:21:02;12.90;49.30
3770;DHT22;1900;48.890;9.190;2023-04-09T04:23:28;12.90;49.20
3770;DHT22;1900;48.890;9.190;2023-04-09T04:26:12;12.80;49.10
3770;DHT22;1900;48.890;9.190;2023-04-09T04:28:39;12.80;49.10
3770;DHT22;1900;48.890;9.190;2023-04-09T04:31:09;12.80;49.10
3770;DHT22;1900;48.890;9.190;2023-04-09T04:33:36;12.80;49.30
3770;DHT22;1900;48.890;9.190;2023-04-09T04:36:07;12.70;49.20
3770;DHT22;1900;48.890;9.190;2023-04-09T04:38:38;12.80;49.40
3770;DHT22;1900;48.890;9.190;2023-04-09T04:41:11;12.70;49.30
3770;DHT22;1900;48.890;9.190;2023-04-09T04:43:40;12.70;49.30
3770;DHT22;1900;48.890;9.190;2023-04-09T04:46:07;12.80;49.40
3770;DHT22;1900;48.890;9.190;2023-04-09T04:48:32;12.80;49.50
3770;DHT22;1900;48.890;9.190;2023-04-09T04:51:00;12.80;49.50
3770;DHT22;1900;48.890;9.190;2023-04-09T04:53:32;12.80;49.60
3770;DHT22;1900;48.890;9.190;2023-04-09T04:56:02;12.80;49.60
3770;DHT22;1900;48.890;9.190;2023-04-09T04:58:28;12.80;49.70
3770;DHT22;1900;48.890;9.190;2023-04-09T05:00:57;12.80;49.70
3770;DHT22;1900;48.890;9.190;2023-04-09T05:03:24;12.90;49.70
3770;DHT22;1900;48.890;9.190;2023-04-09T05:05:57;12.80;49.70
3770;DHT22;1900;48.890;9.190;2023-04-09T05:08:26;12.80;49.70
3770;DHT22;1900;48.890;9.190;2023-04-09T05:10:54;12.90;49.80
3770;DHT22;1900;48.890;9.190;2023-04-09T05:13:30;12.90;49.90
3770;DHT22;1900;48.890;9.190;2023-04-09T05:15:55;12.90;49.90
3770;DHT22;1900;48.890;9.190;2023-04-09T05:18:21;12.90;49.90
3770;DHT22;1900;48.890;9.190;2023-04-09T05:20:47;12.90;49.90
3770;DHT22;1900;48.890;9.190;2023-04-09T05:23:12;13.00;50.00
3770;DHT22;1900;48.890;9.190;2023-04-09T05:25:47;13.00;50.60
3770;DHT22;1900;48.890;9.190;2023-04-09T05:28:21;13.00;50.00
3770;DHT22;1900;48.890;9.190;2023-04-09T05:30:54;13.00;50.00
3770;DHT22;1900;48.890;9.190;2023-04-09T05:33:19;13.00;50.00
3770;DHT22;1900;48.890;9.190;2023-04-09T05:35:45;13.10;50.10
3770;DHT22;1900;48.890;9.190;2023-04-09T05:38:11;13.00;50.00
3770;DHT22;1900;48.890;9.190;2023-04-09T05:40:39;13.10;50.10
3770;DHT22;1900;48.890;9.190;2023-04-09T05:43:10;13.00;50.00
3770;DHT22;1900;48.890;9.190;2023-04-09T05:45:39;13.10;50.00
3770;DHT22;1900;48.890;9.190;2023-04-09T05:48:06;13.10;50.00
3770;DHT22;1900;48.890;9.190;2023-04-09T05:50:31;13.10;50.10
3770;DHT22;1900;48.890;9.190;2023-04-09T05:52:57;13.10;50.10
3770;DHT22;1900;48.890;9.190;2023-04-09T05:55:31;13.10;50.20
3770;DHT22;1900;48.890;9.190;2023-04-09T05:57:59;13.10;50.20
3770;DHT22;1900;48.890;9.190;2023-04-09T06:00:25;13.20;50.30
3770;DHT22;1900;48.890;9.190;2023-04-09T06:02:51;13.20;50.30
3770;DHT22;1900;48.890;9.190;2023-04-09T06:05:16;13.20;50.30
3770;DHT22;1900;48.890;9.190;2023-04-09T06:07:42;13.20;50.30
3770;DHT22;1900;48.890;9.190;2023-04-09T06:10:08;13.20;50.40
3770;DHT22;1900;48.890;9.190;2023-04-09T06:12:37;13.20;50.40
3770;DHT22;1900;48.890;9.190;2023-04-09T06:15:06;13.30;50.50
3770;DHT22;1900;48.890;9.190;2023-04-09T06:17:32;13.30;51.10
3770;DHT22;1900;48.890;9.190;2023-04-09T06:19:57;13.30;50.50
3770;DHT22;1900;48.890;9.190;2023-04-09T06:22:23;13.30;50.50
3770;DHT22;1900;48.890;9.190;2023-04-09T06:24:49;13.40;50.60
3770;DHT22;1900;48.890;9.190;2023-04-09T06:27:14;13.40;50.70
3770;DHT22;1900;48.890;9.190;2023-04-09T06:29:41;13.40;50.60
3770;DHT22;1900;48.890;9.190;2023-04-09T06:32:07;13.40;50.70
3770;DHT22;1900;48.890;9.190;2023-04-09T06:34:33;13.50;50.80
3770;DHT22;1900;48.890;9.190;2023-04-09T06:36:58;13.50;50.90
3770;DHT22;1900;48.890;9.190;2023-04-09T06:39:24;13.50;50.80
3770;DHT22;1900;48.890;9.190;2023-04-09T06:41:50;13.60;50.90
3770;DHT22;1900;48.890;9.190;2023-04-09T06:44:34;13.60;51.00
3770;DHT22;1900;48.890;9.190;2023-04-09T06:47:00;13.60;50.90
3770;DHT22;1900;48.890;9.190;2023-04-09T06:49:26;13.70;51.00
3770;DHT22;1900;48.890;9.190;2023-04-09T06:51:52;13.70;51.00
3770;DHT22;1900;48.890;9.190;2023-04-09T06:54:18;13.80;51.20
3770;DHT22;1900;48.890;9.190;2023-04-09T06:56:44;13.80;51.20
3770;DHT22;1900;48.890;9.190;2023-04-09T06:59:10;13.80;51.30
3770;DHT22;1900;48.890;9.190;2023-04-09T07:01:36;13.90;51.40
3770;DHT22;1900;48.890;9.190;2023-04-09T07:04:03;13.90;51.40
3770;DHT22;1900;48.890;9.190;2023-04-09T07:06:28;14.00;51.60
3770;DHT22;1900;48.890;9.190;2023-04-09T07:08:54;14.00;51.60
3770;DHT22;1900;48.890;9.190;2023-04-09T07:11:20;14.10;51.70
3770;DHT22;1900;48.890;9.190;2023-04-09T07:13:46;14.20;51.90
3770;DHT22;1900;48.890;9.190;2023-04-09T07:16:12;14.20;51.90
3770;DHT22;1900;48.890;9.190;2023-04-09T07:18:37;14.30;52.10
3770;DHT22;1900;48.890;9.190;2023-04-09T07:21:03;14.40;52.20
3770;DHT22;1900;48.890;9.190;2023-04-09T07:23:29;14.40;52.20
3770;DHT22;1900;48.890;9.190;2023-04-09T07:25:54;14.50;52.30
3770;DHT22;1900;48.890;9.190;2023-04-09T07:28:20;14.60;52.30
3770;DHT22;1900;48.890;9.190;2023-04-09T07:30:46;14.70;52.40
3770;DHT22;1900;48.890;9.190;2023-04-09T07:33:12;14.70;52.40
3770;DHT22;1900;48.890;9.190;2023-04-09T07:35:37;14.80;52.50
3770;DHT22;1900;48.890;9.190;2023-04-09T07:38:03;14.90;52.60
3770;DHT22;1900;48.890;9.190;2023-04-09T07:40:28;14.90;52.60
3770;DHT22;1900;48.890;9.190;2023-04-09T07:42:54;15.00;52.70
3770;DHT22;1900;48.890;9.190;2023-04-09T07:45:20;15.10;52.70
3770;DHT22;1900;48.890;9.190;2023-04-09T07:47:46;15.10;52.60
3770;DHT22;1900;48.890;9.190;2023-04-09T07:50:12;15.20;52.60
3770;DHT22;1900;48.890;9.190;2023-04-09T07:52:37;15.20;52.60
3770;DHT22;1900;48.890;9.190;2023-04-09T07:55:03;15.30;52.60
3770;DHT22;1900;48.890;9.190;2023-04-09T07:57:32;15.30;52.60
3770;DHT22;1900;48.890;9.190;2023-04-09T07:59:58;15.40;52.70
3770;DHT22;1900;48.890;9.190;2023-04-09T08:02:23;15.40;52.70
3770;DHT22;1900;48.890;9.190;2023-04-09T08:04:49;15.50;52.70
3770;DHT22;1900;48.890;9.190;2023-04-09T08:07:15;15.50;52.80
3770;DHT22;1900;48.890;9.190;2023-04-09T08:09:41;15.60;52.80
3770;DHT22;1900;48.890;9.190;2023-04-09T08:12:06;15.60;52.70
3770;DHT22;1900;48.890;9.190;2023-04-09T08:14:32;15.70;52.90
3770;DHT22;1900;48.890;9.190;2023-04-09T08:16:58;15.80;53.00
3770;DHT22;1900;48.890;9.190;2023-04-09T08:19:24;15.80;53.00
3770;DHT22;1900;48.890;9.190;2023-04-09T08:21:49;15.90;53.00
3770;DHT22;1900;48.890;9.190;2023-04-09T08:24:15;15.90;52.90
3770;DHT22;1900;48.890;9.190;2023-04-09T08:26:42;16.00;53.00
3770;DHT22;1900;48.890;9.190;2023-04-09T08:29:08;16.00;53.00
3770;DHT22;1900;48.890;9.190;2023-04-09T08:31:34;16.10;53.00
3770;DHT22;1900;48.890;9.190;2023-04-09T08:34:03;16.20;53.20
3770;DHT22;1900;48.890;9.190;2023-04-09T08:36:29;16.20;53.10
3770;DHT22;1900;48.890;9.190;2023-04-09T08:38:56;16.30;53.20
3770;DHT22;1900;48.890;9.190;2023-04-09T08:41:26;16.40;53.30
3770;DHT22;1900;48.890;9.190;2023-04-09T08:43:55;16.40;53.30
3770;DHT22;1900;48.890;9.190;2023-04-09T08:46:22;16.50;53.50
3770;DHT22;1900;48.890;9.190;2023-04-09T08:48:49;16.60;53.50
3770;DHT22;1900;48.890;9.190;2023-04-09T08:51:17;16.70;53.50
3770;DHT22;1900;48.890;9.190;2023-04-09T08:53:44;16.70;53.60
3770;DHT22;1900;48.890;9.190;2023-04-09T08:56:10;16.80;53.60
3770;DHT22;1900;48.890;9.190;2023-04-09T08:58:43;16.90;53.60
3770;DHT22;1900;48.890;9.190;2023-04-09T09:01:25;17.00;53.70
3770;DHT22;1900;48.890;9.190;2023-04-09T09:06:29;17.10;53.70
3770;DHT22;1900;48.890;9.190;2023-04-09T09:09:11;17.20;53.80
3770;DHT22;1900;48.890;9.190;2023-04-09T09:11:37;17.30;53.70
3770;DHT22;1900;48.890;9.190;2023-04-09T09:14:05;17.30;53.60
3770;DHT22;1900;48.890;9.190;2023-04-09T09:16:32;17.30;53.40
3770;DHT22;1900;48.890;9.190;2023-04-09T09:19:00;17.30;53.20
3770;DHT22;1900;48.890;9.190;2023-04-09T09:21:27;17.30;53.00
3770;DHT22;1900;48.890;9.190;2023-04-09T09:23:53;17.30;53.00
3770;DHT22;1900;48.890;9.190;2023-04-09T09:26:24;17.30;53.70
3770;DHT22;1900;48.890;9.190;2023-04-09T09:28:51;17.30;53.00
3770;DHT22;1900;48.890;9.190;2023-04-09T09:31:18;17.30;52.90
3770;DHT22;1900;48.890;9.190;2023-04-09T09:33:45;17.30;52.80
3770;DHT22;1900;48.890;9.190;2023-04-09T09:36:11;17.40;52.80
3770;DHT22;1900;48.890;9.190;2023-04-09T09:38:56;17.40;53.00
3770;DHT22;1900;48.890;9.190;2023-04-09T09:41:23;17.40;53.10
3770;DHT22;1900;48.890;9.190;2023-04-09T09:43:49;17.50;53.30
3770;DHT22;1900;48.890;9.190;2023-04-09T09:46:15;17.50;53.20
3770;DHT22;1900;48.890;9.190;2023-04-09T09:48:41;17.60;53.20
3770;DHT22;1900;48.890;9.190;2023-04-09T09:51:09;17.60;53.10
3770;DHT22;1900;48.890;9.190;2023-04-09T09:53:36;17.60;53.10
3770;DHT22;1900;48.890;9.190;2023-04-09T09:56:04;17.70;53.20
3770;DHT22;1900;48.890;9.190;2023-04-09T09:59:00;17.80;53.10
3770;DHT22;1900;48.890;9.190;2023-04-09T10:01:23;17.80;52.90
3770;DHT22;1900;48.890;9.190;2023-04-09T10:03:51;17.80;52.70
3770;DHT22;1900;48.890;9.190;2023-04-09T10:06:17;17.80;52.70
3770;DHT22;1900;48.890;9.190;2023-04-09T10:08:44;17.80;52.70
3770;DHT22;1900;48.890;9.190;2023-04-09T10:11:13;17.90;53.10
3770;DHT22;1900;48.890;9.190;2023-04-09T10:13:43;18.00;53.30
3770;DHT22;1900;48.890;9.190;2023-04-09T10:16:10;18.00;53.30
3770;DHT22;1900;48.890;9.190;2023-04-09T10:18:37;18.10;53.30
3770;DHT22;1900;48.890;9.190;2023-04-09T10:21:11;18.20;53.50
3770;DHT22;1900;48.890;9.190;2023-04-09T10:23:41;18.40;53.80
3770;DHT22;1900;48.890;9.190;2023-04-09T10:26:09;18.50;54.00
3770;DHT22;1900;48.890;9.190;2023-04-09T10:28:38;18.60;54.10
3770;DHT22;1900;48.890;9.190;2023-04-09T10:31:05;18.70;54.10
3770;DHT22;1900;48.890;9.190;2023-04-09T10:33:32;18.80;54.20
3770;DHT22;1900;48.890;9.190;2023-04-09T10:36:06;19.00;54.40
3770;DHT22;1900;48.890;9.190;2023-04-09T10:38:44;19.10;54.20
3770;DHT22;1900;48.890;9.190;2023-04-09T10:41:20;19.20;53.70
3770;DHT22;1900;48.890;9.190;2023-04-09T10:43:47;19.30;53.60
3770;DHT22;1900;48.890;9.190;2023-04-09T10:46:35;19.30;53.30
3770;DHT22;1900;48.890;9.190;2023-04-09T10:51:37;19.30;52.90
3770;DHT22;1900;48.890;9.190;2023-04-09T10:59:37;19.30;52.90
3770;DHT22;1900;48.890;9.190;2023-04-09T11:02:08;19.30;52.60
3770;DHT22;1900;48.890;9.190;2023-04-09T11:07:42;19.30;52.40
3770;DHT22;1900;48.890;9.190;2023-04-09T11:10:08;19.30;52.30
3770;DHT22;1900;48.890;9.190;2023-04-09T11:12:34;19.30;52.20
3770;DHT22;1900;48.890;9.190;2023-04-09T11:15:00;19.30;52.30
3770;DHT22;1900;48.890;9.190;2023-04-09T11:17:26;19.30;52.50
3770;DHT22;1900;48.890;9.190;2023-04-09T11:19:52;19.40;52.70
3770;DHT22;1900;48.890;9.190;2023-04-09T11:22:17;19.40;52.70
3770;DHT22;1900;48.890;9.190;2023-04-09T11:24:44;19.50;53.00
3770;DHT22;1900;48.890;9.190;2023-04-09T11:27:15;19.60;53.20
3770;DHT22;1900;48.890;9.190;2023-04-09T11:29:44;19.70;53.50
3770;DHT22;1900;48.890;9.190;2023-04-09T11:32:11;19.80;53.60
3770;DHT22;1900;48.890;9.190;2023-04-09T11:34:37;19.90;53.30
3770;DHT22;1900;48.890;9.190;2023-04-09T11:37:03;19.90;53.30
3770;DHT22;1900;48.890;9.190;2023-04-09T11:39:35;19.90;53.20
3770;DHT22;1900;48.890;9.190;2023-04-09T11:42:01;20.00;52.90
3770;DHT22;1900;48.890;9.190;2023-04-09T11:44:27;19.90;52.70
3770;DHT22;1900;48.890;9.190;2023-04-09T11:46:53;19.90;52.70
3770;DHT22;1900;48.890;9.190;2023-04-09T11:49:19;20.00;52.70
3770;DHT22;1900;48.890;9.190;2023-04-09T11:51:45;20.00;52.70
3770;DHT22;1900;48.890;9.190;2023-04-09T11:54:11;20.00;52.70
3770;DHT22;1900;48.890;9.190;2023-04-09T11:56:37;20.10;52.80
3770;DHT22;1900;48.890;9.190;2023-04-09T11:59:02;20.20;53.10
3770;DHT22;1900;48.890;9.190;2023-04-09T12:01:32;20.30;53.40
3770;DHT22;1900;48.890;9.190;2023-04-09T12:03:58;20.40;53.40
3770;DHT22;1900;48.890;9.190;2023-04-09T12:06:25;20.50;53.80
3770;DHT22;1900;48.890;9.190;2023-04-09T12:08:58;20.60;53.90
3770;DHT22;1900;48.890;9.190;2023-04-09T12:11:31;20.70;53.90
3770;DHT22;1900;48.890;9.190;2023-04-09T12:13:58;20.80;53.70
3770;DHT22;1900;48.890;9.190;2023-04-09T12:16:24;20.90;53.80
3770;DHT22;1900;48.890;9.190;2023-04-09T12:18:50;20.90;53.60
3770;DHT22;1900;48.890;9.190;2023-04-09T12:21:23;20.90;53.50
3770;DHT22;1900;48.890;9.190;2023-04-09T12:23:49;21.00;53.30
3770;DHT22;1900;48.890;9.190;2023-04-09T12:26:15;21.00;53.20
3770;DHT22;1900;48.890;9.190;2023-04-09T12:28:40;21.00;53.20
3770;DHT22;1900;48.890;9.190;2023-04-09T12:31:09;21.00;52.70
3770;DHT22;1900;48.890;9.190;2023-04-09T12:33:35;21.00;52.70
3770;DHT22;1900;48.890;9.190;2023-04-09T12:36:03;21.00;52.70
3770;DHT22;1900;48.890;9.190;2023-04-09T12:38:29;21.00;52.70
3770;DHT22;1900;48.890;9.190;2023-04-09T12:40:54;21.00;52.70
3770;DHT22;1900;48.890;9.190;2023-04-09T12:43:20;20.90;52.40
3770;DHT22;1900;48.890;9.190;2023-04-09T12:45:46;20.90;52.50
3770;DHT22;1900;48.890;9.190;2023-04-09T12:48:11;20.90;52.40
3770;DHT22;1900;48.890;9.190;2023-04-09T12:50:37;21.00;52.50
3770;DHT22;1900;48.890;9.190;2023-04-09T12:53:03;21.00;52.20
3770;DHT22;1900;48.890;9.190;2023-04-09T12:55:28;20.90;52.10
3770;DHT22;1900;48.890;9.190;2023-04-09T12:57:54;21.00;52.30
3770;DHT22;1900;48.890;9.190;2023-04-09T13:00:20;20.90;52.40
3770;DHT22;1900;48.890;9.190;2023-04-09T13:02:46;21.00;52.50
3770;DHT22;1900;48.890;9.190;2023-04-09T13:05:11;21.00;52.40
3770;DHT22;1900;48.890;9.190;2023-04-09T13:07:37;21.00;52.60
3770;DHT22;1900;48.890;9.190;2023-04-09T13:10:04;21.10;53.10
3770;DHT22;1900;48.890;9.190;2023-04-09T13:12:30;21.30;53.60
3770;DHT22;1900;48.890;9.190;2023-04-09T13:14:56;21.40;53.90
3770;DHT22;1900;48.890;9.190;2023-04-09T13:17:23;21.60;54.10
3770;DHT22;1900;48.890;9.190;2023-04-09T13:19:49;21.70;54.10
3770;DHT22;1900;48.890;9.190;2023-04-09T13:22:17;21.90;54.10
3770;DHT22;1900;48.890;9.190;2023-04-09T13:24:42;22.00;54.00
3770;DHT22;1900;48.890;9.190;2023-04-09T13:27:08;22.10;53.40
3770;DHT22;1900;48.890;9.190;2023-04-09T13:29:34;22.20;53.50
3770;DHT22;1900;48.890;9.190;2023-04-09T13:32:00;22.40;54.00
3770;DHT22;1900;48.890;9.190;2023-04-09T13:34:31;22.50;54.30
3770;DHT22;1900;48.890;9.190;2023-04-09T13:36:57;22.60;53.80
3770;DHT22;1900;48.890;9.190;2023-04-09T13:39:22;22.70;54.00
3770;DHT22;1900;48.890;9.190;2023-04-09T13:41:48;22.80;54.00
3770;DHT22;1900;48.890;9.190;2023-04-09T13:44:14;22.90;53.80
3770;DHT22;1900;48.890;9.190;2023-04-09T13:46:40;23.00;54.00
3770;DHT22;1900;48.890;9.190;2023-04-09T13:49:05;23.00;53.90
3770;DHT22;1900;48.890;9.190;2023-04-09T13:51:32;23.10;53.70
3770;DHT22;1900;48.890;9.190;2023-04-09T13:53:58;23.10;53.20
3770;DHT22;1900;48.890;9.190;2023-04-09T13:56:23;23.10;52.90
3770;DHT22;1900;48.890;9.190;2023-04-09T13:58:51;23.10;52.70
3770;DHT22;1900;48.890;9.190;2023-04-09T14:01:17;23.10;52.80
3770;DHT22;1900;48.890;9.190;2023-04-09T14:03:43;23.00;52.50
3770;DHT22;1900;48.890;9.190;2023-04-09T14:06:09;23.00;52.50
3770;DHT22;1900;48.890;9.190;2023-04-09T14:08:35;23.00;52.20
3770;DHT22;1900;48.890;9.190;2023-04-09T14:11:01;23.00;52.30
3770;DHT22;1900;48.890;9.190;2023-04-09T14:13:27;23.00;52.10
3770;DHT22;1900;48.890;9.190;2023-04-09T14:15:53;23.00;52.40
3770;DHT22;1900;48.890;9.190;2023-04-09T14:18:19;23.00;52.30
3770;DHT22;1900;48.890;9.190;2023-04-09T14:20:45;23.00;52.30
3770;DHT22;1900;48.890;9.190;2023-04-09T14:23:10;23.10;52.60
3770;DHT22;1900;48.890;9.190;2023-04-09T14:25:36;23.10;52.40
3770;DHT22;1900;48.890;9.190;2023-04-09T14:28:02;23.20;52.30
3770;DHT22;1900;48.890;9.190;2023-04-09T14:30:28;23.20;51.90
3770;DHT22;1900;48.890;9.190;2023-04-09T14:32:54;23.10;51.90
3770;DHT22;1900;48.890;9.190;2023-04-09T14:35:20;23.10;51.90
3770;DHT22;1900;48.890;9.190;2023-04-09T14:37:45;23.10;51.50
3770;DHT22;1900;48.890;9.190;2023-04-09T14:40:11;23.00;51.00
3770;DHT22;1900;48.890;9.190;2023-04-09T14:42:38;22.90;50.80
3770;DHT22;1900;48.890;9.190;2023-04-09T14:45:04;22.90;51.00
3770;DHT22;1900;48.890;9.190;2023-04-09T14:47:30;22.90;51.10
3770;DHT22;1900;48.890;9.190;2023-04-09T14:49:55;22.80;51.00
3770;DHT22;1900;48.890;9.190;2023-04-09T14:52:21;22.70;50.70
3770;DHT22;1900;48.890;9.190;2023-04-09T14:54:47;22.70;50.80
3770;DHT22;1900;48.890;9.190;2023-04-09T14:57:13;22.60;50.70
3770;DHT22;1900;48.890;9.190;2023-04-09T14:59:38;22.50;50.70
3770;DHT22;1900;48.890;9.190;2023-04-09T15:02:04;22.50;50.80
3770;DHT22;1900;48.890;9.190;2023-04-09T15:04:30;22.40;50.70
3770;DHT22;1900;48.890;9.190;2023-04-09T15:06:56;22.40;50.80
3770;DHT22;1900;48.890;9.190;2023-04-09T15:09:21;22.40;50.80
3770;DHT22;1900;48.890;9.190;2023-04-09T15:11:47;22.30;50.70
3770;DHT22;1900;48.890;9.190;2023-04-09T15:14:13;22.30;50.80
3770;DHT22;1900;48.890;9.190;2023-04-09T15:16:38;22.30;50.70
3770;DHT22;1900;48.890;9.190;2023-04-09T15:19:04;22.20;50.50
3770;DHT22;1900;48.890;9.190;2023-04-09T15:21:30;22.20;50.40
3770;DHT22;1900;48.890;9.190;2023-04-09T15:23:56;22.20;50.50
3770;DHT22;1900;48.890;9.190;2023-04-09T15:26:24;22.20;50.60
3770;DHT22;1900;48.890;9.190;2023-04-09T15:28:50;22.20;50.80
3770;DHT22;1900;48.890;9.190;2023-04-09T15:31:18;22.20;50.90
3770;DHT22;1900;48.890;9.190;2023-04-09T15:33:44;22.20;50.90
3770;DHT22;1900;48.890;9.190;2023-04-09T15:36:10;22.20;51.30
3770;DHT22;1900;48.890;9.190;2023-04-09T15:38:36;22.20;50.40
3770;DHT22;1900;48.890;9.190;2023-04-09T15:41:02;22.20;50.30
3770;DHT22;1900;48.890;9.190;2023-04-09T15:43:29;22.20;50.10
3770;DHT22;1900;48.890;9.190;2023-04-09T15:45:55;22.10;50.00
3770;DHT22;1900;48.890;9.190;2023-04-09T15:48:20;22.10;49.70
3770;DHT22;1900;48.890;9.190;2023-04-09T15:50:46;22.00;49.50
3770;DHT22;1900;48.890;9.190;2023-04-09T15:53:15;22.00;49.50
3770;DHT22;1900;48.890;9.190;2023-04-09T15:55:41;21.90;49.30
3770;DHT22;1900;48.890;9.190;2023-04-09T15:58:06;21.90;49.30
3770;DHT22;1900;48.890;9.190;2023-04-09T16:00:32;21.80;49.20
3770;DHT22;1900;48.890;9.190;2023-04-09T16:02:58;21.70;49.20
3770;DHT22;1900;48.890;9.190;2023-04-09T16:05:24;21.70;49.00
3770;DHT22;1900;48.890;9.190;2023-04-09T16:07:50;21.60;48.90
3770;DHT22;1900;48.890;9.190;2023-04-09T16:10:17;21.50;49.00
3770;DHT22;1900;48.890;9.190;2023-04-09T16:12:42;21.50;49.10
3770;DHT22;1900;48.890;9.190;2023-04-09T16:15:08;21.50;49.10
3770;DHT22;1900;48.890;9.190;2023-04-09T16:17:34;21.40;49.70
3770;DHT22;1900;48.890;9.190;2023-04-09T16:20:00;21.40;49.10
3770;DHT22;1900;48.890;9.190;2023-04-09T16:22:27;21.30;48.90
3770;DHT22;1900;48.890;9.190;2023-04-09T16:24:54;21.30;48.90
3770;DHT22;1900;48.890;9.190;2023-04-09T16:27:20;21.20;48.80